sensor_id;sensor_type;location;lat;lon;timestamp;pressure;altitude;pressure_sealevel;temperature;humidity
48614;BME280;34408;51.426;5.444;2023-03-18T00:00:21;100720.94;;;13.31;60.36
48614;BME280;34408;51.426;5.444;2023-03-18T00:02:50;100720.94;;;13.31;60.50
48614;BME280;34408;51.426;5.444;2023-03-18T00:05:19;100721.19;;;13.30;60.67
48614;BME280;34408;51.426;5.444;2023-03-18T00:07:46;100721.19;;;13.30;60.54
48614;BME280;34408;51.426;5.444;2023-03-18T00:10:16;100718.72;;;13.28;60.36
48614;BME280;34408;51.426;5.444;2023-03-18T00:12:44;100728.72;;;13.28;60.37
48614;BME280;34408;51.426;5.444;2023-03-18T00:15:13;100733.28;;;13.27;60.52
48614;BME280;34408;51.426;5.444;2023-03-18T00:17:41;100728.94;;;13.26;60.27
48614;BME280;34408;51.426;5.444;2023-03-18T00:20:12;100730.84;;;13.26;60.25
48614;BME280;34408;51.426;5.444;2023-03-18T00:22:40;100731.91;;;13.25;60.56
48614;BME280;34408;51.426;5.444;2023-03-18T00:25:10;100744.56;;;13.24;60.80
48614;BME280;34408;51.426;5.444;2023-03-18T00:27:38;100739.41;;;13.23;60.73
48614;BME280;34408;51.426;5.444;2023-03-18T00:30:08;100741.28;;;13.22;60.49
48614;BME280;34408;51.426;5.444;2023-03-18T00:32:38;100740.72;;;13.20;61.01
48614;BME280;34408;51.426;5.444;2023-03-18T00:35:07;100732.84;;;13.19;60.70
48614;BME280;34408;51.426;5.444;2023-03-18T00:37:37;100737.44;;;13.18;61.10
48614;BME280;34408;51.426;5.444;2023-03-18T00:40:07;100750.69;;;13.20;60.80
48614;BME280;34408;51.426;5.444;2023-03-18T00:42:37;100757.16;;;13.19;60.77
48614;BME280;34408;51.426;5.444;2023-03-18T00:45:13;100769.81;;;13.18;61.11
48614;BME280;34408;51.426;5.444;2023-03-18T00:47:41;100751.28;;;13.10;60.72
48614;BME280;34408;51.426;5.444;2023-03-18T00:50:10;100766.53;;;13.16;60.40
48614;BME280;34408;51.426;5.444;2023-03-18T00:52:40;100766.06;;;13.19;60.75
48614;BME280;34408;51.426;5.444;2023-03-18T00:55:08;100770.63;;;13.19;60.39
48614;BME280;34408;51.426;5.444;2023-03-18T00:57:36;100776.28;;;13.17;60.45
48614;BME280;34408;51.426;5.444;2023-03-18T01:00:05;100774.41;;;13.18;60.84
48614;BME280;34408;51.426;5.444;2023-03-18T01:02:33;100771.94;;;13.16;60.54
48614;BME280;34408;51.426;5.444;2023-03-18T01:05:01;100769.25;;;13.16;60.88
48614;BME280;34408;51.426;5.444;2023-03-18T01:07:29;100768.38;;;13.16;60.75
48614;BME280;34408;51.426;5.444;2023-03-18T01:09:58;100767.56;;;13.15;61.13
48614;BME280;34408;51.426;5.444;2023-03-18T01:12:26;100765.69;;;13.16;60.99
48614;BME280;34408;51.426;5.444;2023-03-18T01:14:54;100751.63;;;13.14;61.48
48614;BME280;34408;51.426;5.444;2023-03-18T01:17:22;100747.28;;;13.13;61.47
48614;BME280;34408;51.426;5.444;2023-03-18T01:19:50;100753.25;;;13.15;61.36
48614;BME280;34408;51.426;5.444;2023-03-18T01:22:18;100757.03;;;13.14;61.69
48614;BME280;34408;51.426;5.444;2023-03-18T01:24:46;100745.56;;;13.07;61.80
48614;BME280;34408;51.426;5.444;2023-03-18T01:27:15;100769.13;;;13.11;61.63
48614;BME280;34408;51.426;5.444;2023-03-18T01:29:43;100759.38;;;13.10;62.06
48614;BME280;34408;51.426;5.444;2023-03-18T01:32:11;100755.28;;;13.08;61.92
48614;BME280;34408;51.426;5.444;2023-03-18T01:34:39;100739.69;;;13.10;62.19
48614;BME280;34408;51.426;5.444;2023-03-18T01:37:07;100751.53;;;13.09;62.52
48614;BME280;34408;51.426;5.444;2023-03-18T01:39:35;100747.44;;;13.06;62.50
48614;BME280;34408;51.426;5.444;2023-03-18T01:42:03;100752.25;;;13.04;62.75
48614;BME280;34408;51.426;5.444;2023-03-18T01:44:33;100743.34;;;13.03;62.92
48614;BME280;34408;51.426;5.444;2023-03-18T01:47:01;100740.88;;;13.02;63.13
48614;BME280;34408;51.426;5.444;2023-03-18T01:49:33;100741.69;;;13.02;62.97
48614;BME280;34408;51.426;5.444;2023-03-18T01:52:06;100744.06;;;12.99;63.22
48614;BME280;34408;51.426;5.444;2023-03-18T01:54:37;100752.97;;;12.99;63.22
48614;BME280;34408;51.426;5.444;2023-03-18T01:57:06;100754.03;;;12.98;63.33
48614;BME280;34408;51.426;5.444;2023-03-18T01:59:37;100741.97;;;12.89;63.38
48614;BME280;34408;51.426;5.444;2023-03-18T02:02:09;100750.75;;;12.96;64.02
48614;BME280;34408;51.426;5.444;2023-03-18T02:04:38;100755.31;;;12.96;64.13
48614;BME280;34408;51.426;5.444;2023-03-18T02:07:13;100751.00;;;12.95;63.74
48614;BME280;34408;51.426;5.444;2023-03-18T02:09:41;100756.63;;;12.93;63.64
48614;BME280;34408;51.426;5.444;2023-03-18T02:12:10;100750.06;;;12.89;64.22
48614;BME280;34408;51.426;5.444;2023-03-18T02:14:40;100756.03;;;12.91;63.79
48614;BME280;34408;51.426;5.444;2023-03-18T02:17:11;100758.97;;;12.90;64.16
48614;BME280;34408;51.426;5.444;2023-03-18T02:19:53;100758.16;;;12.89;64.44
48614;BME280;34408;51.426;5.444;2023-03-18T02:22:27;100763.56;;;12.89;64.26
48614;BME280;34408;51.426;5.444;2023-03-18T02:25:08;100763.56;;;12.89;64.18
48614;BME280;34408;51.426;5.444;2023-03-18T02:27:42;100760.50;;;12.86;64.00
48614;BME280;34408;51.426;5.444;2023-03-18T02:30:14;100767.31;;;12.88;63.92
48614;BME280;34408;51.426;5.444;2023-03-18T02:32:44;100770.00;;;12.88;64.20
48614;BME280;34408;51.426;5.444;2023-03-18T02:35:13;100766.50;;;12.88;64.29
48614;BME280;34408;51.426;5.444;2023-03-18T02:37:40;100750.09;;;12.78;64.33
48614;BME280;34408;51.426;5.444;2023-03-18T02:40:14;100765.66;;;12.87;64.25
48614;BME280;34408;51.426;5.444;2023-03-18T02:42:44;100772.94;;;12.87;64.16
48614;BME280;34408;51.426;5.444;2023-03-18T02:45:19;100774.00;;;12.86;64.30
48614;BME280;34408;51.426;5.444;2023-03-18T02:47:51;100781.28;;;12.85;64.16
48614;BME280;34408;51.426;5.444;2023-03-18T02:50:19;100772.38;;;12.85;64.50
48614;BME280;34408;51.426;5.444;2023-03-18T02:52:47;100789.59;;;12.84;64.33
48614;BME280;34408;51.426;5.444;2023-03-18T02:55:15;100791.47;;;12.83;64.55
48614;BME280;34408;51.426;5.444;2023-03-18T02:57:44;100785.25;;;12.83;64.28
48614;BME280;34408;51.426;5.444;2023-03-18T03:00:12;100789.03;;;12.82;64.53
48614;BME280;34408;51.426;5.444;2023-03-18T03:02:41;100791.72;;;12.82;64.14
48614;BME280;34408;51.426;5.444;2023-03-18T03:05:10;100788.19;;;12.81;64.59
48614;BME280;34408;51.426;5.444;2023-03-18T03:07:38;100795.47;;;12.81;64.45
48614;BME280;34408;51.426;5.444;2023-03-18T03:10:07;100797.34;;;12.80;64.73
48614;BME280;34408;51.426;5.444;2023-03-18T03:12:36;100804.63;;;12.80;64.82
48614;BME280;34408;51.426;5.444;2023-03-18T03:15:07;100799.47;;;12.78;64.74
48614;BME280;34408;51.426;5.444;2023-03-18T03:17:35;100794.31;;;12.77;64.85
48614;BME280;34408;51.426;5.444;2023-03-18T03:20:05;100806.97;;;12.76;65.08
48614;BME280;34408;51.426;5.444;2023-03-18T03:22:33;100806.16;;;12.76;65.08
48614;BME280;34408;51.426;5.444;2023-03-18T03:25:01;100805.34;;;12.75;64.75
48614;BME280;34408;51.426;5.444;2023-03-18T03:27:29;100801.81;;;12.75;65.09
48614;BME280;34408;51.426;5.444;2023-03-18T03:29:57;100805.56;;;12.74;65.16
48614;BME280;34408;51.426;5.444;2023-03-18T03:32:26;100799.34;;;12.73;65.19
48614;BME280;34408;51.426;5.444;2023-03-18T03:34:54;100802.28;;;12.71;65.06
48614;BME280;34408;51.426;5.444;2023-03-18T03:37:22;100800.66;;;12.70;64.86
48614;BME280;34408;51.426;5.444;2023-03-18T03:39:50;100808.97;;;12.69;64.89
48614;BME280;34408;51.426;5.444;2023-03-18T03:42:17;100811.66;;;12.69;65.10
48614;BME280;34408;51.426;5.444;2023-03-18T03:44:45;100817.06;;;12.69;64.98
48614;BME280;34408;51.426;5.444;2023-03-18T03:47:13;100818.13;;;12.68;65.10
48614;BME280;34408;51.426;5.444;2023-03-18T03:49:42;100813.78;;;12.67;65.41
48614;BME280;34408;51.426;5.444;2023-03-18T03:52:10;100814.59;;;12.67;65.54
48614;BME280;34408;51.426;5.444;2023-03-18T03:54:38;100814.03;;;12.65;65.50
48614;BME280;34408;51.426;5.444;2023-03-18T03:57:07;100822.94;;;12.66;65.49
48614;BME280;34408;51.426;5.444;2023-03-18T03:59:35;100821.28;;;12.65;65.30
48614;BME280;34408;51.426;5.444;2023-03-18T04:02:03;100823.16;;;12.64;65.73
48614;BME280;34408;51.426;5.444;2023-03-18T04:04:31;100829.63;;;12.63;65.82
48614;BME280;34408;51.426;5.444;2023-03-18T04:07:00;100826.09;;;12.63;65.29
48614;BME280;34408;51.426;5.444;2023-03-18T04:09:28;100829.03;;;12.61;65.67
48614;BME280;34408;51.426;5.444;2023-03-18T04:11:56;100836.06;;;12.62;65.62
48614;BME280;34408;51.426;5.444;2023-03-18T04:14:24;100833.59;;;12.61;65.68
48614;BME280;34408;51.426;5.444;2023-03-18T04:16:52;100833.59;;;12.61;65.80
48614;BME280;34408;51.426;5.444;2023-03-18T04:19:21;100822.81;;;12.61;65.50
48614;BME280;34408;51.426;5.444;2023-03-18T04:21:49;100824.94;;;12.59;65.21
48614;BME280;34408;51.426;5.444;2023-03-18T04:24:18;100827.38;;;12.60;65.57
48614;BME280;34408;51.426;5.444;2023-03-18T04:26:46;100830.09;;;12.60;65.71
48614;BME280;34408;51.426;5.444;2023-03-18T04:29:14;100833.59;;;12.61;65.38
48614;BME280;34408;51.426;5.444;2023-03-18T04:31:42;100830.09;;;12.60;65.89
48614;BME280;34408;51.426;5.444;2023-03-18T04:34:10;100831.97;;;12.60;65.68
48614;BME280;34408;51.426;5.444;2023-03-18T04:36:39;100837.59;;;12.58;65.67
48614;BME280;34408;51.426;5.444;2023-03-18T04:39:06;100841.09;;;12.59;65.73
48614;BME280;34408;51.426;5.444;2023-03-18T04:41:36;100852.13;;;12.57;65.67
48614;BME280;34408;51.426;5.444;2023-03-18T04:44:05;100848.59;;;12.57;65.94
48614;BME280;34408;51.426;5.444;2023-03-18T04:46:32;100849.44;;;12.57;65.84
48614;BME280;34408;51.426;5.444;2023-03-18T04:49:00;100859.38;;;12.57;65.60
48614;BME280;34408;51.426;5.444;2023-03-18T04:51:28;100846.97;;;12.56;66.00
48614;BME280;34408;51.426;5.444;2023-03-18T04:53:56;100835.72;;;12.47;65.45
48614;BME280;34408;51.426;5.444;2023-03-18T04:56:24;100853.66;;;12.53;65.90
48614;BME280;34408;51.426;5.444;2023-03-18T04:58:53;100859.84;;;12.54;66.10
48614;BME280;34408;51.426;5.444;2023-03-18T05:01:20;100860.91;;;12.53;65.74
48614;BME280;34408;51.426;5.444;2023-03-18T05:03:50;100860.09;;;12.52;65.79
48614;BME280;34408;51.426;5.444;2023-03-18T05:06:21;100865.47;;;12.52;66.02
48614;BME280;34408;51.426;5.444;2023-03-18T05:08:49;100871.94;;;12.51;66.16
48614;BME280;34408;51.426;5.444;2023-03-18T05:11:17;100866.53;;;12.51;65.65
48614;BME280;34408;51.426;5.444;2023-03-18T05:13:45;100860.31;;;12.51;65.91
48614;BME280;34408;51.426;5.444;2023-03-18T05:16:14;100863.03;;;12.51;66.11
48614;BME280;34408;51.426;5.444;2023-03-18T05:18:42;100850.59;;;12.50;66.17
48614;BME280;34408;51.426;5.444;2023-03-18T05:21:10;100860.78;;;12.48;65.89
48614;BME280;34408;51.426;5.444;2023-03-18T05:23:38;100855.41;;;12.48;66.11
48614;BME280;34408;51.426;5.444;2023-03-18T05:26:06;100851.88;;;12.47;65.78
48614;BME280;34408;51.426;5.444;2023-03-18T05:28:35;100855.06;;;12.44;65.81
48614;BME280;34408;51.426;5.444;2023-03-18T05:31:03;100863.72;;;12.46;65.87
48614;BME280;34408;51.426;5.444;2023-03-18T05:33:32;100858.56;;;12.45;65.87
48614;BME280;34408;51.426;5.444;2023-03-18T05:36:00;100860.44;;;12.44;66.10
48614;BME280;34408;51.426;5.444;2023-03-18T05:38:28;100859.38;;;12.45;65.89
48614;BME280;34408;51.426;5.444;2023-03-18T05:40:56;100863.38;;;12.43;65.84
48614;BME280;34408;51.426;5.444;2023-03-18T05:43:23;100870.63;;;12.42;65.97
48614;BME280;34408;51.426;5.444;2023-03-18T05:45:52;100874.38;;;12.41;65.61
48614;BME280;34408;51.426;5.444;2023-03-18T05:48:20;100878.97;;;12.41;65.87
48614;BME280;34408;51.426;5.444;2023-03-18T05:50:49;100884.34;;;12.41;65.37
48614;BME280;34408;51.426;5.444;2023-03-18T05:53:17;100889.16;;;12.38;65.63
48614;BME280;34408;51.426;5.444;2023-03-18T05:55:45;100892.66;;;12.39;65.98
48614;BME280;34408;51.426;5.444;2023-03-18T05:58:14;100883.88;;;12.32;65.41
48614;BME280;34408;51.426;5.444;2023-03-18T06:00:41;100902.63;;;12.38;65.49
48614;BME280;34408;51.426;5.444;2023-03-18T06:03:09;100905.09;;;12.40;65.58
48614;BME280;34408;51.426;5.444;2023-03-18T06:05:37;100896.41;;;12.38;65.60
48614;BME280;34408;51.426;5.444;2023-03-18T06:08:06;100889.16;;;12.38;65.66
48614;BME280;34408;51.426;5.444;2023-03-18T06:10:34;100885.63;;;12.38;65.55
48614;BME280;34408;51.426;5.444;2023-03-18T06:13:02;100883.75;;;12.38;65.32
48614;BME280;34408;51.426;5.444;2023-03-18T06:15:30;100884.00;;;12.37;65.38
48614;BME280;34408;51.426;5.444;2023-03-18T06:17:59;100890.19;;;12.37;65.43
48614;BME280;34408;51.426;5.444;2023-03-18T06:20:27;100893.94;;;12.36;65.32
48614;BME280;34408;51.426;5.444;2023-03-18T06:22:54;100889.59;;;12.35;65.66
48614;BME280;34408;51.426;5.444;2023-03-18T06:25:24;100887.97;;;12.34;65.69
48614;BME280;34408;51.426;5.444;2023-03-18T06:27:51;100891.47;;;12.35;65.55
48614;BME280;34408;51.426;5.444;2023-03-18T06:30:19;100899.81;;;12.33;65.50
48614;BME280;34408;51.426;5.444;2023-03-18T06:32:47;100902.50;;;12.33;65.63
48614;BME280;34408;51.426;5.444;2023-03-18T06:35:15;100908.94;;;12.32;65.52
48614;BME280;34408;51.426;5.444;2023-03-18T06:37:44;100918.06;;;12.31;65.12
48614;BME280;34408;51.426;5.444;2023-03-18T06:40:12;100913.75;;;12.30;65.52
48614;BME280;34408;51.426;5.444;2023-03-18T06:42:41;100916.19;;;12.32;65.60
48614;BME280;34408;51.426;5.444;2023-03-18T06:45:09;100918.91;;;12.32;65.35
48614;BME280;34408;51.426;5.444;2023-03-18T06:47:37;100916.19;;;12.32;65.33
48614;BME280;34408;51.426;5.444;2023-03-18T06:50:07;100921.38;;;12.33;65.50
48614;BME280;34408;51.426;5.444;2023-03-18T06:52:35;100919.38;;;12.29;68.14
48614;BME280;34408;51.426;5.444;2023-03-18T06:55:05;100919.81;;;12.26;69.47
48614;BME280;34408;51.426;5.444;2023-03-18T06:57:32;100917.34;;;12.24;69.49
48614;BME280;34408;51.426;5.444;2023-03-18T07:00:02;100924.38;;;12.25;69.17
48614;BME280;34408;51.426;5.444;2023-03-18T07:02:30;100928.28;;;12.29;68.65
48614;BME280;34408;51.426;5.444;2023-03-18T07:04:58;100933.44;;;12.31;68.36
48614;BME280;34408;51.426;5.444;2023-03-18T07:07:27;100935.66;;;12.34;67.93
48614;BME280;34408;51.426;5.444;2023-03-18T07:09:55;100928.16;;;12.36;67.72
48614;BME280;34408;51.426;5.444;2023-03-18T07:12:23;100930.03;;;12.35;68.31
48614;BME280;34408;51.426;5.444;2023-03-18T07:14:52;100926.53;;;12.35;68.71
48614;BME280;34408;51.426;5.444;2023-03-18T07:17:21;100933.56;;;12.36;67.90
48614;BME280;34408;51.426;5.444;2023-03-18T07:19:49;100941.41;;;12.37;67.61
48614;BME280;34408;51.426;5.444;2023-03-18T07:22:18;100941.41;;;12.37;67.34
48614;BME280;34408;51.426;5.444;2023-03-18T07:24:46;100946.78;;;12.37;67.31
48614;BME280;34408;51.426;5.444;2023-03-18T07:27:13;100945.16;;;12.36;67.13
48614;BME280;34408;51.426;5.444;2023-03-18T07:29:42;100953.00;;;12.38;67.29
48614;BME280;34408;51.426;5.444;2023-03-18T07:32:10;100957.13;;;12.41;66.68
48614;BME280;34408;51.426;5.444;2023-03-18T07:34:39;100952.56;;;12.41;66.99
48614;BME280;34408;51.426;5.444;2023-03-18T07:37:08;100950.78;;;12.35;66.91
48614;BME280;34408;51.426;5.444;2023-03-18T07:39:35;100962.50;;;12.41;66.91
48614;BME280;34408;51.426;5.444;2023-03-18T07:42:04;100959.00;;;12.40;66.63
48614;BME280;34408;51.426;5.444;2023-03-18T07:44:32;100974.13;;;12.41;66.75
48614;BME280;34408;51.426;5.444;2023-03-18T07:46:59;100975.91;;;12.59;66.26
48614;BME280;34408;51.426;5.444;2023-03-18T07:49:28;100971.91;;;12.50;66.37
48614;BME280;34408;51.426;5.444;2023-03-18T07:51:57;100969.91;;;12.45;66.72
48614;BME280;34408;51.426;5.444;2023-03-18T07:54:25;100975.53;;;12.44;66.49
48614;BME280;34408;51.426;5.444;2023-03-18T07:56:53;100972.81;;;12.44;66.71
48614;BME280;34408;51.426;5.444;2023-03-18T07:59:21;100968.50;;;12.43;66.64
48614;BME280;34408;51.426;5.444;2023-03-18T08:01:48;100968.50;;;12.43;66.98
48614;BME280;34408;51.426;5.444;2023-03-18T08:04:16;100969.53;;;12.42;66.84
48614;BME280;34408;51.426;5.444;2023-03-18T08:06:44;100949.94;;;12.34;67.00
48614;BME280;34408;51.426;5.444;2023-03-18T08:09:14;100965.78;;;12.43;66.70
48614;BME280;34408;51.426;5.444;2023-03-18T08:11:42;100949.63;;;12.43;67.15
48614;BME280;34408;51.426;5.444;2023-03-18T08:14:09;100954.19;;;12.42;66.80
48614;BME280;34408;51.426;5.444;2023-03-18T08:16:37;100956.88;;;12.42;66.94
48614;BME280;34408;51.426;5.444;2023-03-18T08:19:05;100967.66;;;12.42;67.13
48614;BME280;34408;51.426;5.444;2023-03-18T08:21:33;100963.09;;;12.43;66.80
48614;BME280;34408;51.426;5.444;2023-03-18T08:24:01;100957.72;;;12.43;67.12
48614;BME280;34408;51.426;5.444;2023-03-18T08:26:30;100956.66;;;12.44;66.83
48614;BME280;34408;51.426;5.444;2023-03-18T08:28:57;100963.91;;;12.43;66.45
48614;BME280;34408;51.426;5.444;2023-03-18T08:31:25;100967.22;;;12.45;66.69
48614;BME280;34408;51.426;5.444;2023-03-18T08:33:53;100963.56;;;12.39;66.67
48614;BME280;34408;51.426;5.444;2023-03-18T08:36:21;100975.88;;;12.47;66.46
48614;BME280;34408;51.426;5.444;2023-03-18T08:38:50;100981.03;;;12.49;66.69
48614;BME280;34408;51.426;5.444;2023-03-18T08:41:18;100980.22;;;12.48;66.62
48614;BME280;34408;51.426;5.444;2023-03-18T08:43:47;100985.38;;;12.50;66.74
48614;BME280;34408;51.426;5.444;2023-03-18T08:46:18;100985.38;;;12.50;66.80
48614;BME280;34408;51.426;5.444;2023-03-18T08:48:46;100981.44;;;12.64;66.39
48614;BME280;34408;51.426;5.444;2023-03-18T08:51:14;100964.88;;;12.49;66.62
48614;BME280;34408;51.426;5.444;2023-03-18T08:53:42;100985.63;;;12.60;67.38
48614;BME280;34408;51.426;5.444;2023-03-18T08:56:10;100978.38;;;12.60;67.45
48614;BME280;34408;51.426;5.444;2023-03-18T08:58:38;100977.91;;;12.63;67.01
48614;BME280;34408;51.426;5.444;2023-03-18T09:01:07;100973.94;;;12.66;67.08
48614;BME280;34408;51.426;5.444;2023-03-18T09:03:37;100976.38;;;12.67;67.21
48614;BME280;34408;51.426;5.444;2023-03-18T09:06:05;100968.66;;;12.71;67.66
48614;BME280;34408;51.426;5.444;2023-03-18T09:08:33;100977.69;;;12.77;68.14
48614;BME280;34408;51.426;5.444;2023-03-18T09:11:01;100979.56;;;12.88;67.79
48614;BME280;34408;51.426;5.444;2023-03-18T09:13:29;100981.81;;;12.91;67.46
48614;BME280;34408;51.426;5.444;2023-03-18T09:15:57;100970.44;;;13.00;67.69
48614;BME280;34408;51.426;5.444;2023-03-18T09:18:26;100983.44;;;13.15;67.93
48614;BME280;34408;51.426;5.444;2023-03-18T09:20:54;100978.06;;;13.03;67.50
48614;BME280;34408;51.426;5.444;2023-03-18T09:23:22;100988.50;;;13.00;67.49
48614;BME280;34408;51.426;5.444;2023-03-18T09:25:51;100997.28;;;12.95;67.29
48614;BME280;34408;51.426;5.444;2023-03-18T09:28:20;100997.28;;;12.95;67.45
48614;BME280;34408;51.426;5.444;2023-03-18T09:30:48;100991.91;;;12.95;67.87
48614;BME280;34408;51.426;5.444;2023-03-18T09:33:16;100987.31;;;12.96;67.61
48614;BME280;34408;51.426;5.444;2023-03-18T09:35:46;100981.09;;;12.95;67.78
48614;BME280;34408;51.426;5.444;2023-03-18T09:38:16;100981.09;;;12.95;68.22
48614;BME280;34408;51.426;5.444;2023-03-18T09:40:53;100982.16;;;12.94;67.99
48614;BME280;34408;51.426;5.444;2023-03-18T09:43:25;100996.25;;;12.96;68.18
48614;BME280;34408;51.426;5.444;2023-03-18T09:46:01;100990.50;;;12.93;68.22
48614;BME280;34408;51.426;5.444;2023-03-18T09:48:42;100985.69;;;12.95;68.18
48614;BME280;34408;51.426;5.444;2023-03-18T09:51:22;100980.88;;;13.09;68.88
48614;BME280;34408;51.426;5.444;2023-03-18T09:53:55;100984.16;;;13.11;68.32
48614;BME280;34408;51.426;5.444;2023-03-18T09:56:27;100982.97;;;13.07;68.50
48614;BME280;34408;51.426;5.444;2023-03-18T09:58:58;100980.53;;;13.05;68.26
48614;BME280;34408;51.426;5.444;2023-03-18T10:01:31;100989.44;;;13.06;68.05
48614;BME280;34408;51.426;5.444;2023-03-18T10:04:04;100987.69;;;13.11;68.53
48614;BME280;34408;51.426;5.444;2023-03-18T10:06:36;100987.69;;;13.11;68.28
48614;BME280;34408;51.426;5.444;2023-03-18T10:09:13;100997.78;;;13.16;68.62
48614;BME280;34408;51.426;5.444;2023-03-18T10:11:45;101004.97;;;13.22;68.55
48614;BME280;34408;51.426;5.444;2023-03-18T10:14:31;100989.81;;;13.21;68.33
48614;BME280;34408;51.426;5.444;2023-03-18T10:17:08;100989.34;;;13.24;68.50
48614;BME280;34408;51.426;5.444;2023-03-18T10:19:40;100992.63;;;13.26;68.38
48614;BME280;34408;51.426;5.444;2023-03-18T10:25:13;100997.53;;;13.52;69.42
48614;BME280;34408;51.426;5.444;2023-03-18T10:27:58;100987.91;;;13.56;69.32
48614;BME280;34408;51.426;5.444;2023-03-18T10:30:39;100987.91;;;13.56;68.87
48614;BME280;34408;51.426;5.444;2023-03-18T10:33:16;100987.31;;;13.54;68.32
48614;BME280;34408;51.426;5.444;2023-03-18T10:35:48;100976.66;;;13.48;68.43
48614;BME280;34408;51.426;5.444;2023-03-18T10:38:22;100968.06;;;13.51;67.84
48614;BME280;34408;51.426;5.444;2023-03-18T10:40:52;100973.69;;;13.49;68.00
48614;BME280;34408;51.426;5.444;2023-03-18T10:43:23;100981.56;;;13.51;67.93
48614;BME280;34408;51.426;5.444;2023-03-18T10:45:58;100982.16;;;13.53;68.34
48614;BME280;34408;51.426;5.444;2023-03-18T10:48:31;100979.22;;;13.54;68.03
48614;BME280;34408;51.426;5.444;2023-03-18T10:51:06;100977.91;;;13.57;68.34
48614;BME280;34408;51.426;5.444;2023-03-18T10:53:41;100983.66;;;13.60;67.83
48614;BME280;34408;51.426;5.444;2023-03-18T10:56:13;100981.78;;;13.61;67.64
48614;BME280;34408;51.426;5.444;2023-03-18T10:58:41;100988.59;;;13.63;67.32
48614;BME280;34408;51.426;5.444;2023-03-18T11:01:11;100985.41;;;13.66;67.25
48614;BME280;34408;51.426;5.444;2023-03-18T11:03:47;100984.34;;;13.67;67.29
48614;BME280;34408;51.426;5.444;2023-03-18T11:06:21;100986.00;;;13.68;67.19
48614;BME280;34408;51.426;5.444;2023-03-18T11:09:00;100980.94;;;13.72;67.25
48614;BME280;34408;51.426;5.444;2023-03-18T11:11:31;100979.88;;;13.73;67.57
48614;BME280;34408;51.426;5.444;2023-03-18T11:14:02;100975.88;;;13.76;67.55
48614;BME280;34408;51.426;5.444;2023-03-18T11:16:36;100985.13;;;13.80;67.41
48614;BME280;34408;51.426;5.444;2023-03-18T11:19:19;100992.84;;;13.88;68.63
48614;BME280;34408;51.426;5.444;2023-03-18T11:21:58;100990.22;;;13.93;68.26
48614;BME280;34408;51.426;5.444;2023-03-18T11:24:30;100995.72;;;13.98;67.82
48614;BME280;34408;51.426;5.444;2023-03-18T11:27:26;100999.25;;;13.98;67.41
48614;BME280;34408;51.426;5.444;2023-03-18T11:29:57;101008.19;;;13.99;67.49
48614;BME280;34408;51.426;5.444;2023-03-18T11:32:27;101005.81;;;14.02;67.85
48614;BME280;34408;51.426;5.444;2023-03-18T11:34:58;101008.88;;;14.06;67.85
48614;BME280;34408;51.426;5.444;2023-03-18T11:37:29;101004.28;;;14.07;67.59
48614;BME280;34408;51.426;5.444;2023-03-18T11:40:27;101004.53;;;14.05;67.36
48614;BME280;34408;51.426;5.444;2023-03-18T11:42:59;101008.03;;;14.06;67.07
48614;BME280;34408;51.426;5.444;2023-03-18T11:45:34;101017.78;;;14.07;67.83
48614;BME280;34408;51.426;5.444;2023-03-18T11:48:05;101018.63;;;14.07;67.60
48614;BME280;34408;51.426;5.444;2023-03-18T11:50:43;101017.31;;;14.10;67.89
48614;BME280;34408;51.426;5.444;2023-03-18T11:53:25;101012.50;;;14.12;67.63
48614;BME280;34408;51.426;5.444;2023-03-18T11:55:57;101005.44;;;14.11;67.07
48614;BME280;34408;51.426;5.444;2023-03-18T11:58:51;101020.00;;;14.10;66.94
48614;BME280;34408;51.426;5.444;2023-03-18T12:01:27;101016.50;;;14.09;66.99
48614;BME280;34408;51.426;5.444;2023-03-18T12:04:23;101013.22;;;14.07;66.50
48614;BME280;34408;51.426;5.444;2023-03-18T12:07:07;101013.22;;;14.07;66.89
48614;BME280;34408;51.426;5.444;2023-03-18T12:09:46;101017.78;;;14.07;66.67
48614;BME280;34408;51.426;5.444;2023-03-18T12:12:36;101006.97;;;14.07;66.60
48614;BME280;34408;51.426;5.444;2023-03-18T12:15:12;101009.44;;;14.08;66.78
48614;BME280;34408;51.426;5.444;2023-03-18T12:17:53;101004.03;;;14.08;67.03
48614;BME280;34408;51.426;5.444;2023-03-18T12:20:35;100998.63;;;14.08;66.91
48614;BME280;34408;51.426;5.444;2023-03-18T12:26:04;101004.28;;;14.07;66.57
48614;BME280;34408;51.426;5.444;2023-03-18T12:28:47;101008.03;;;14.06;66.72
48614;BME280;34408;51.426;5.444;2023-03-18T12:31:40;101002.63;;;14.06;66.77
48614;BME280;34408;51.426;5.444;2023-03-18T12:34:20;101003.47;;;14.06;66.52
48614;BME280;34408;51.426;5.444;2023-03-18T12:37:03;101006.16;;;14.06;66.56
48614;BME280;34408;51.426;5.444;2023-03-18T12:39:58;101006.16;;;14.06;66.93
48614;BME280;34408;51.426;5.444;2023-03-18T12:42:36;101002.63;;;14.06;66.66
48614;BME280;34408;51.426;5.444;2023-03-18T12:45:11;101000.75;;;14.06;66.47
48614;BME280;34408;51.426;5.444;2023-03-18T12:47:45;100997.00;;;14.07;66.55
48614;BME280;34408;51.426;5.444;2023-03-18T12:50:17;100999.13;;;14.05;67.05
48614;BME280;34408;51.426;5.444;2023-03-18T12:52:49;101006.75;;;14.08;66.67
48614;BME280;34408;51.426;5.444;2023-03-18T12:55:22;101004.84;;;14.09;66.61
48614;BME280;34408;51.426;5.444;2023-03-18T12:57:54;101007.31;;;14.10;66.50
48614;BME280;34408;51.426;5.444;2023-03-18T13:00:29;100994.63;;;14.11;67.19
48614;BME280;34408;51.426;5.444;2023-03-18T13:03:02;100988.75;;;14.14;66.53
48614;BME280;34408;51.426;5.444;2023-03-18T13:05:41;101000.38;;;14.14;66.71
48614;BME280;34408;51.426;5.444;2023-03-18T13:08:43;100990.91;;;14.28;68.35
48614;BME280;34408;51.426;5.444;2023-03-18T13:11:25;100991.09;;;14.39;66.99
48614;BME280;34408;51.426;5.444;2023-03-18T13:13:59;100982.94;;;14.50;67.58